<?xml version="1.0" encoding="utf-8"?>
<gpx xmlns:xsi="http://www.w3.org/2001/XMLSchema-instance" xmlns:xsd="http://www.w3.org/2001/XMLSchema" version="1.1" creator="Shapelink.com" xmlns="http://www.topografix.com/GPX/1/1" xmlns:gpxtpx="http://www.garmin.com/xmlschemas/TrackPointExtension/v1">
  <metadata>
    <name>Gåing 2.34 km, 2012-04-08</name>
    <desc></desc>
    <author><name>Mikael Blom</name></author> 
    <time>2012-04-08T11:33:53Z</time>
  </metadata>
  <trk>
    <name>Gåing 2.34 km, 2012-04-08</name>
    <trkseg>
      <trkpt lat="59.9551112" lon="17.7143251">
        <ele>41.474</ele>
        <time>2012-04-08T11:33:53Z</time>
      </trkpt>
      <trkpt lat="59.9550999" lon="17.714367">
        <ele>41.9547</ele>
        <time>2012-04-08T11:33:55Z</time>
      </trkpt>
      <trkpt lat="59.9550279" lon="17.7143841">
        <ele>42.4354</ele>
        <time>2012-04-08T11:34:00Z</time>
      </trkpt>
      <trkpt lat="59.9549967" lon="17.7144411">
        <ele>43.3966</ele>
        <time>2012-04-08T11:34:03Z</time>
      </trkpt>
      <trkpt lat="59.9548981" lon="17.7146316">
        <ele>45.3192</ele>
        <time>2012-04-08T11:34:11Z</time>
      </trkpt>
      <trkpt lat="59.954874" lon="17.7146774">
        <ele>45.7999</ele>
        <time>2012-04-08T11:34:13Z</time>
      </trkpt>
      <trkpt lat="59.9547914" lon="17.7147706">
        <ele>46.2806</ele>
        <time>2012-04-08T11:34:19Z</time>
      </trkpt>
      <trkpt lat="59.954773" lon="17.714768">
        <ele>45.7999</ele>
        <time>2012-04-08T11:34:20Z</time>
      </trkpt>
      <trkpt lat="59.9546621" lon="17.7147913">
        <ele>46.7612</ele>
        <time>2012-04-08T11:34:26Z</time>
      </trkpt>
      <trkpt lat="59.9546424" lon="17.7148048">
        <ele>47.2418</ele>
        <time>2012-04-08T11:34:27Z</time>
      </trkpt>
      <trkpt lat="59.9545984" lon="17.7148296">
        <ele>48.684</ele>
        <time>2012-04-08T11:34:31Z</time>
      </trkpt>
      <trkpt lat="59.9545236" lon="17.714854">
        <ele>50.6066</ele>
        <time>2012-04-08T11:34:35Z</time>
      </trkpt>
      <trkpt lat="59.9544445" lon="17.7148602">
        <ele>50.6066</ele>
        <time>2012-04-08T11:34:40Z</time>
      </trkpt>
      <trkpt lat="59.9544171" lon="17.7148545">
        <ele>50.6066</ele>
        <time>2012-04-08T11:34:42Z</time>
      </trkpt>
      <trkpt lat="59.9543301" lon="17.7148466">
        <ele>51.0872</ele>
        <time>2012-04-08T11:34:47Z</time>
      </trkpt>
      <trkpt lat="59.9542529" lon="17.7148513">
        <ele>51.0872</ele>
        <time>2012-04-08T11:34:52Z</time>
      </trkpt>
      <trkpt lat="59.9541712" lon="17.7148789">
        <ele>52.0486</ele>
        <time>2012-04-08T11:34:58Z</time>
      </trkpt>
      <trkpt lat="59.954097" lon="17.7148943">
        <ele>52.0486</ele>
        <time>2012-04-08T11:35:03Z</time>
      </trkpt>
      <trkpt lat="59.954045" lon="17.7149191">
        <ele>52.5292</ele>
        <time>2012-04-08T11:35:07Z</time>
      </trkpt>
      <trkpt lat="59.9539617" lon="17.7149369">
        <ele>52.0486</ele>
        <time>2012-04-08T11:35:14Z</time>
      </trkpt>
      <trkpt lat="59.9538939" lon="17.7149203">
        <ele>49.6453</ele>
        <time>2012-04-08T11:35:20Z</time>
      </trkpt>
      <trkpt lat="59.9537955" lon="17.7149631">
        <ele>48.2034</ele>
        <time>2012-04-08T11:35:25Z</time>
      </trkpt>
      <trkpt lat="59.9537073" lon="17.7150258">
        <ele>48.684</ele>
        <time>2012-04-08T11:35:31Z</time>
      </trkpt>
      <trkpt lat="59.9536244" lon="17.7151216">
        <ele>48.2034</ele>
        <time>2012-04-08T11:35:37Z</time>
      </trkpt>
      <trkpt lat="59.9535674" lon="17.7152021">
        <ele>48.684</ele>
        <time>2012-04-08T11:35:41Z</time>
      </trkpt>
      <trkpt lat="59.9535318" lon="17.7152331">
        <ele>48.684</ele>
        <time>2012-04-08T11:35:43Z</time>
      </trkpt>
      <trkpt lat="59.9534805" lon="17.7153311">
        <ele>50.126</ele>
        <time>2012-04-08T11:35:46Z</time>
      </trkpt>
      <trkpt lat="59.9534236" lon="17.7154207">
        <ele>51.5679</ele>
        <time>2012-04-08T11:35:50Z</time>
      </trkpt>
      <trkpt lat="59.9533508" lon="17.7154772">
        <ele>51.5679</ele>
        <time>2012-04-08T11:35:55Z</time>
      </trkpt>
      <trkpt lat="59.9533257" lon="17.7155363">
        <ele>50.126</ele>
        <time>2012-04-08T11:35:59Z</time>
      </trkpt>
      <trkpt lat="59.9532519" lon="17.7156756">
        <ele>50.126</ele>
        <time>2012-04-08T11:36:05Z</time>
      </trkpt>
      <trkpt lat="59.953233" lon="17.7156933">
        <ele>50.126</ele>
        <time>2012-04-08T11:36:06Z</time>
      </trkpt>
      <trkpt lat="59.95312" lon="17.7158092">
        <ele>49.1646</ele>
        <time>2012-04-08T11:36:14Z</time>
      </trkpt>
      <trkpt lat="59.9530563" lon="17.7159232">
        <ele>48.684</ele>
        <time>2012-04-08T11:36:19Z</time>
      </trkpt>
      <trkpt lat="59.9530257" lon="17.7159667">
        <ele>48.684</ele>
        <time>2012-04-08T11:36:21Z</time>
      </trkpt>
      <trkpt lat="59.9529856" lon="17.7161785">
        <ele>49.1646</ele>
        <time>2012-04-08T11:36:28Z</time>
      </trkpt>
      <trkpt lat="59.9529766" lon="17.716207">
        <ele>49.1646</ele>
        <time>2012-04-08T11:36:29Z</time>
      </trkpt>
      <trkpt lat="59.9529391" lon="17.7163522">
        <ele>50.126</ele>
        <time>2012-04-08T11:36:34Z</time>
      </trkpt>
      <trkpt lat="59.9529245" lon="17.7164748">
        <ele>49.1646</ele>
        <time>2012-04-08T11:36:38Z</time>
      </trkpt>
      <trkpt lat="59.9529142" lon="17.7166857">
        <ele>48.684</ele>
        <time>2012-04-08T11:36:45Z</time>
      </trkpt>
      <trkpt lat="59.9529005" lon="17.7168774">
        <ele>48.684</ele>
        <time>2012-04-08T11:36:50Z</time>
      </trkpt>
      <trkpt lat="59.9528874" lon="17.7170209">
        <ele>47.2418</ele>
        <time>2012-04-08T11:36:55Z</time>
      </trkpt>
      <trkpt lat="59.9528714" lon="17.7171098">
        <ele>47.2418</ele>
        <time>2012-04-08T11:36:58Z</time>
      </trkpt>
      <trkpt lat="59.952837" lon="17.7173006">
        <ele>46.2806</ele>
        <time>2012-04-08T11:37:04Z</time>
      </trkpt>
      <trkpt lat="59.9528149" lon="17.7174321">
        <ele>46.7612</ele>
        <time>2012-04-08T11:37:08Z</time>
      </trkpt>
      <trkpt lat="59.9527738" lon="17.7175884">
        <ele>47.7225</ele>
        <time>2012-04-08T11:37:14Z</time>
      </trkpt>
      <trkpt lat="59.9527626" lon="17.7176201">
        <ele>47.2418</ele>
        <time>2012-04-08T11:37:15Z</time>
      </trkpt>
      <trkpt lat="59.952676" lon="17.7178409">
        <ele>46.2806</ele>
        <time>2012-04-08T11:37:23Z</time>
      </trkpt>
      <trkpt lat="59.952631" lon="17.7179812">
        <ele>46.7612</ele>
        <time>2012-04-08T11:37:28Z</time>
      </trkpt>
      <trkpt lat="59.9525868" lon="17.7181189">
        <ele>46.2806</ele>
        <time>2012-04-08T11:37:32Z</time>
      </trkpt>
      <trkpt lat="59.9525739" lon="17.7181677">
        <ele>45.7999</ele>
        <time>2012-04-08T11:37:34Z</time>
      </trkpt>
      <trkpt lat="59.9525486" lon="17.7182578">
        <ele>45.3192</ele>
        <time>2012-04-08T11:37:38Z</time>
      </trkpt>
      <trkpt lat="59.9525322" lon="17.7183438">
        <ele>45.7999</ele>
        <time>2012-04-08T11:37:41Z</time>
      </trkpt>
      <trkpt lat="59.9525071" lon="17.7185314">
        <ele>45.7999</ele>
        <time>2012-04-08T11:37:47Z</time>
      </trkpt>
      <trkpt lat="59.9524964" lon="17.7186054">
        <ele>46.2806</ele>
        <time>2012-04-08T11:37:49Z</time>
      </trkpt>
      <trkpt lat="59.9524715" lon="17.7187515">
        <ele>46.2806</ele>
        <time>2012-04-08T11:37:54Z</time>
      </trkpt>
      <trkpt lat="59.9524448" lon="17.7188834">
        <ele>47.2418</ele>
        <time>2012-04-08T11:37:59Z</time>
      </trkpt>
      <trkpt lat="59.9523932" lon="17.7190711">
        <ele>45.3192</ele>
        <time>2012-04-08T11:38:05Z</time>
      </trkpt>
      <trkpt lat="59.9523913" lon="17.7191026">
        <ele>44.8386</ele>
        <time>2012-04-08T11:38:06Z</time>
      </trkpt>
      <trkpt lat="59.9523761" lon="17.7192203">
        <ele>44.8386</ele>
        <time>2012-04-08T11:38:10Z</time>
      </trkpt>
      <trkpt lat="59.9523578" lon="17.719383">
        <ele>44.8386</ele>
        <time>2012-04-08T11:38:15Z</time>
      </trkpt>
      <trkpt lat="59.9523559" lon="17.7194441">
        <ele>43.3966</ele>
        <time>2012-04-08T11:38:17Z</time>
      </trkpt>
      <trkpt lat="59.9523866" lon="17.7196084">
        <ele>43.3966</ele>
        <time>2012-04-08T11:38:23Z</time>
      </trkpt>
      <trkpt lat="59.9524067" lon="17.7197544">
        <ele>44.8386</ele>
        <time>2012-04-08T11:38:28Z</time>
      </trkpt>
      <trkpt lat="59.9524356" lon="17.7199055">
        <ele>44.8386</ele>
        <time>2012-04-08T11:38:33Z</time>
      </trkpt>
      <trkpt lat="59.9524593" lon="17.7200158">
        <ele>45.7999</ele>
        <time>2012-04-08T11:38:38Z</time>
      </trkpt>
      <trkpt lat="59.9524708" lon="17.7201838">
        <ele>45.7999</ele>
        <time>2012-04-08T11:38:43Z</time>
      </trkpt>
      <trkpt lat="59.9524627" lon="17.7202491">
        <ele>46.2806</ele>
        <time>2012-04-08T11:38:45Z</time>
      </trkpt>
      <trkpt lat="59.9524488" lon="17.7203153">
        <ele>46.2806</ele>
        <time>2012-04-08T11:38:47Z</time>
      </trkpt>
      <trkpt lat="59.95245" lon="17.7205566">
        <ele>48.684</ele>
        <time>2012-04-08T11:38:54Z</time>
      </trkpt>
      <trkpt lat="59.9524548" lon="17.7205889">
        <ele>48.684</ele>
        <time>2012-04-08T11:38:55Z</time>
      </trkpt>
      <trkpt lat="59.9524678" lon="17.7206913">
        <ele>48.684</ele>
        <time>2012-04-08T11:38:58Z</time>
      </trkpt>
      <trkpt lat="59.952473" lon="17.7208261">
        <ele>48.2034</ele>
        <time>2012-04-08T11:39:02Z</time>
      </trkpt>
      <trkpt lat="59.9524865" lon="17.7208938">
        <ele>47.7225</ele>
        <time>2012-04-08T11:39:04Z</time>
      </trkpt>
      <trkpt lat="59.9525056" lon="17.7210997">
        <ele>47.2418</ele>
        <time>2012-04-08T11:39:09Z</time>
      </trkpt>
      <trkpt lat="59.9525025" lon="17.7211327">
        <ele>47.2418</ele>
        <time>2012-04-08T11:39:10Z</time>
      </trkpt>
      <trkpt lat="59.9524926" lon="17.721345">
        <ele>44.8386</ele>
        <time>2012-04-08T11:39:16Z</time>
      </trkpt>
      <trkpt lat="59.9524886" lon="17.7214399">
        <ele>44.8386</ele>
        <time>2012-04-08T11:39:18Z</time>
      </trkpt>
      <trkpt lat="59.9524861" lon="17.7216156">
        <ele>44.8386</ele>
        <time>2012-04-08T11:39:23Z</time>
      </trkpt>
      <trkpt lat="59.9525252" lon="17.7218221">
        <ele>45.3192</ele>
        <time>2012-04-08T11:39:30Z</time>
      </trkpt>
      <trkpt lat="59.9525355" lon="17.7219787">
        <ele>45.3192</ele>
        <time>2012-04-08T11:39:36Z</time>
      </trkpt>
      <trkpt lat="59.9525133" lon="17.7221745">
        <ele>45.7999</ele>
        <time>2012-04-08T11:39:42Z</time>
      </trkpt>
      <trkpt lat="59.9525097" lon="17.722214">
        <ele>46.2806</ele>
        <time>2012-04-08T11:39:43Z</time>
      </trkpt>
      <trkpt lat="59.9524821" lon="17.7224656">
        <ele>45.7999</ele>
        <time>2012-04-08T11:39:50Z</time>
      </trkpt>
      <trkpt lat="59.9524555" lon="17.7225584">
        <ele>45.7999</ele>
        <time>2012-04-08T11:39:53Z</time>
      </trkpt>
      <trkpt lat="59.9524384" lon="17.722769">
        <ele>43.8773</ele>
        <time>2012-04-08T11:40:00Z</time>
      </trkpt>
      <trkpt lat="59.9524434" lon="17.7228411">
        <ele>43.3966</ele>
        <time>2012-04-08T11:40:02Z</time>
      </trkpt>
      <trkpt lat="59.9524497" lon="17.7230178">
        <ele>42.916</ele>
        <time>2012-04-08T11:40:08Z</time>
      </trkpt>
      <trkpt lat="59.9524464" lon="17.7231161">
        <ele>42.4354</ele>
        <time>2012-04-08T11:40:11Z</time>
      </trkpt>
      <trkpt lat="59.9524122" lon="17.7232094">
        <ele>42.4354</ele>
        <time>2012-04-08T11:40:14Z</time>
      </trkpt>
      <trkpt lat="59.9523673" lon="17.7232847">
        <ele>42.916</ele>
        <time>2012-04-08T11:40:16Z</time>
      </trkpt>
      <trkpt lat="59.9522725" lon="17.723595">
        <ele>45.3192</ele>
        <time>2012-04-08T11:40:22Z</time>
      </trkpt>
      <trkpt lat="59.9522139" lon="17.7238242">
        <ele>46.7612</ele>
        <time>2012-04-08T11:40:27Z</time>
      </trkpt>
      <trkpt lat="59.9521663" lon="17.724016">
        <ele>49.6453</ele>
        <time>2012-04-08T11:40:31Z</time>
      </trkpt>
      <trkpt lat="59.9521539" lon="17.7240688">
        <ele>50.126</ele>
        <time>2012-04-08T11:40:32Z</time>
      </trkpt>
      <trkpt lat="59.9521047" lon="17.7242528">
        <ele>50.6066</ele>
        <time>2012-04-08T11:40:36Z</time>
      </trkpt>
      <trkpt lat="59.9520674" lon="17.724431">
        <ele>51.0872</ele>
        <time>2012-04-08T11:40:40Z</time>
      </trkpt>
      <trkpt lat="59.9520042" lon="17.7247081">
        <ele>50.126</ele>
        <time>2012-04-08T11:40:46Z</time>
      </trkpt>
      <trkpt lat="59.9519695" lon="17.7248998">
        <ele>49.6453</ele>
        <time>2012-04-08T11:40:50Z</time>
      </trkpt>
      <trkpt lat="59.9519289" lon="17.7250514">
        <ele>50.126</ele>
        <time>2012-04-08T11:40:54Z</time>
      </trkpt>
      <trkpt lat="59.951843" lon="17.725235">
        <ele>51.0872</ele>
        <time>2012-04-08T11:41:00Z</time>
      </trkpt>
      <trkpt lat="59.9518322" lon="17.7252525">
        <ele>50.6066</ele>
        <time>2012-04-08T11:41:01Z</time>
      </trkpt>
      <trkpt lat="59.9518053" lon="17.7253415">
        <ele>51.0872</ele>
        <time>2012-04-08T11:41:06Z</time>
      </trkpt>
      <trkpt lat="59.9518" lon="17.7253839">
        <ele>50.6066</ele>
        <time>2012-04-08T11:41:08Z</time>
      </trkpt>
      <trkpt lat="59.9517593" lon="17.7254881">
        <ele>51.0872</ele>
        <time>2012-04-08T11:41:12Z</time>
      </trkpt>
      <trkpt lat="59.9517027" lon="17.7256119">
        <ele>50.126</ele>
        <time>2012-04-08T11:41:18Z</time>
      </trkpt>
      <trkpt lat="59.9516767" lon="17.7256479">
        <ele>49.6453</ele>
        <time>2012-04-08T11:41:20Z</time>
      </trkpt>
      <trkpt lat="59.9516119" lon="17.7258057">
        <ele>48.684</ele>
        <time>2012-04-08T11:41:27Z</time>
      </trkpt>
      <trkpt lat="59.9515871" lon="17.7258761">
        <ele>48.2034</ele>
        <time>2012-04-08T11:41:30Z</time>
      </trkpt>
      <trkpt lat="59.9516302" lon="17.7260155">
        <ele>46.7612</ele>
        <time>2012-04-08T11:41:36Z</time>
      </trkpt>
      <trkpt lat="59.9516595" lon="17.7261532">
        <ele>46.2806</ele>
        <time>2012-04-08T11:41:41Z</time>
      </trkpt>
      <trkpt lat="59.9516338" lon="17.7262073">
        <ele>46.2806</ele>
        <time>2012-04-08T11:41:43Z</time>
      </trkpt>
      <trkpt lat="59.9515852" lon="17.7263505">
        <ele>46.7612</ele>
        <time>2012-04-08T11:41:49Z</time>
      </trkpt>
      <trkpt lat="59.9515422" lon="17.7264871">
        <ele>47.7225</ele>
        <time>2012-04-08T11:41:54Z</time>
      </trkpt>
      <trkpt lat="59.9514763" lon="17.7266715">
        <ele>48.2034</ele>
        <time>2012-04-08T11:42:01Z</time>
      </trkpt>
      <trkpt lat="59.9514856" lon="17.7268642">
        <ele>49.1646</ele>
        <time>2012-04-08T11:42:07Z</time>
      </trkpt>
      <trkpt lat="59.9514925" lon="17.7269173">
        <ele>49.1646</ele>
        <time>2012-04-08T11:42:09Z</time>
      </trkpt>
      <trkpt lat="59.9515116" lon="17.7270619">
        <ele>48.684</ele>
        <time>2012-04-08T11:42:14Z</time>
      </trkpt>
      <trkpt lat="59.9515152" lon="17.7271736">
        <ele>48.684</ele>
        <time>2012-04-08T11:42:18Z</time>
      </trkpt>
      <trkpt lat="59.9515235" lon="17.7273308">
        <ele>48.684</ele>
        <time>2012-04-08T11:42:22Z</time>
      </trkpt>
      <trkpt lat="59.9515244" lon="17.7274793">
        <ele>49.1646</ele>
        <time>2012-04-08T11:42:26Z</time>
      </trkpt>
      <trkpt lat="59.9515494" lon="17.7276764">
        <ele>48.684</ele>
        <time>2012-04-08T11:42:31Z</time>
      </trkpt>
      <trkpt lat="59.9515748" lon="17.727827">
        <ele>49.6453</ele>
        <time>2012-04-08T11:42:36Z</time>
      </trkpt>
      <trkpt lat="59.9516008" lon="17.7278558">
        <ele>50.126</ele>
        <time>2012-04-08T11:42:38Z</time>
      </trkpt>
      <trkpt lat="59.9516617" lon="17.7279168">
        <ele>49.1646</ele>
        <time>2012-04-08T11:42:44Z</time>
      </trkpt>
      <trkpt lat="59.9516882" lon="17.7279187">
        <ele>48.684</ele>
        <time>2012-04-08T11:42:46Z</time>
      </trkpt>
      <trkpt lat="59.9517565" lon="17.7279">
        <ele>47.2418</ele>
        <time>2012-04-08T11:42:51Z</time>
      </trkpt>
      <trkpt lat="59.9518385" lon="17.7278897">
        <ele>47.7225</ele>
        <time>2012-04-08T11:42:57Z</time>
      </trkpt>
      <trkpt lat="59.951946" lon="17.727744">
        <ele>46.2806</ele>
        <time>2012-04-08T11:43:07Z</time>
      </trkpt>
      <trkpt lat="59.9519639" lon="17.7276932">
        <ele>46.2806</ele>
        <time>2012-04-08T11:43:09Z</time>
      </trkpt>
      <trkpt lat="59.9520057" lon="17.7275165">
        <ele>42.916</ele>
        <time>2012-04-08T11:43:15Z</time>
      </trkpt>
      <trkpt lat="59.9520436" lon="17.7273986">
        <ele>41.9547</ele>
        <time>2012-04-08T11:43:20Z</time>
      </trkpt>
      <trkpt lat="59.9520779" lon="17.7272814">
        <ele>41.474</ele>
        <time>2012-04-08T11:43:25Z</time>
      </trkpt>
      <trkpt lat="59.9520985" lon="17.7271582">
        <ele>40.9934</ele>
        <time>2012-04-08T11:43:29Z</time>
      </trkpt>
      <trkpt lat="59.9521038" lon="17.7270996">
        <ele>40.0321</ele>
        <time>2012-04-08T11:43:31Z</time>
      </trkpt>
      <trkpt lat="59.9521538" lon="17.7268438">
        <ele>40.9934</ele>
        <time>2012-04-08T11:43:40Z</time>
      </trkpt>
      <trkpt lat="59.9521664" lon="17.726748">
        <ele>40.5128</ele>
        <time>2012-04-08T11:43:43Z</time>
      </trkpt>
      <trkpt lat="59.9522077" lon="17.7266352">
        <ele>39.0707</ele>
        <time>2012-04-08T11:43:48Z</time>
      </trkpt>
      <trkpt lat="59.952245" lon="17.7265302">
        <ele>38.1094</ele>
        <time>2012-04-08T11:43:52Z</time>
      </trkpt>
      <trkpt lat="59.9522986" lon="17.7263663">
        <ele>37.6287</ele>
        <time>2012-04-08T11:43:58Z</time>
      </trkpt>
      <trkpt lat="59.9523167" lon="17.726308">
        <ele>37.1481</ele>
        <time>2012-04-08T11:44:00Z</time>
      </trkpt>
      <trkpt lat="59.9523527" lon="17.7262086">
        <ele>36.6675</ele>
        <time>2012-04-08T11:44:04Z</time>
      </trkpt>
      <trkpt lat="59.9523999" lon="17.7261004">
        <ele>36.1868</ele>
        <time>2012-04-08T11:44:09Z</time>
      </trkpt>
      <trkpt lat="59.9524496" lon="17.7259876">
        <ele>35.2255</ele>
        <time>2012-04-08T11:44:14Z</time>
      </trkpt>
      <trkpt lat="59.9524721" lon="17.7259476">
        <ele>34.7449</ele>
        <time>2012-04-08T11:44:16Z</time>
      </trkpt>
      <trkpt lat="59.952526" lon="17.7258266">
        <ele>34.7449</ele>
        <time>2012-04-08T11:44:22Z</time>
      </trkpt>
      <trkpt lat="59.9525635" lon="17.7257451">
        <ele>34.7449</ele>
        <time>2012-04-08T11:44:26Z</time>
      </trkpt>
      <trkpt lat="59.9526414" lon="17.7256843">
        <ele>32.3416</ele>
        <time>2012-04-08T11:44:31Z</time>
      </trkpt>
      <trkpt lat="59.952703" lon="17.7256374">
        <ele>31.8607</ele>
        <time>2012-04-08T11:44:35Z</time>
      </trkpt>
      <trkpt lat="59.9527595" lon="17.7255612">
        <ele>31.3801</ele>
        <time>2012-04-08T11:44:39Z</time>
      </trkpt>
      <trkpt lat="59.9527806" lon="17.7255197">
        <ele>31.3801</ele>
        <time>2012-04-08T11:44:41Z</time>
      </trkpt>
      <trkpt lat="59.9528261" lon="17.7254067">
        <ele>29.9381</ele>
        <time>2012-04-08T11:44:46Z</time>
      </trkpt>
      <trkpt lat="59.9528485" lon="17.7253503">
        <ele>31.3801</ele>
        <time>2012-04-08T11:44:48Z</time>
      </trkpt>
      <trkpt lat="59.9528931" lon="17.7252214">
        <ele>35.7061</ele>
        <time>2012-04-08T11:44:53Z</time>
      </trkpt>
      <trkpt lat="59.952906" lon="17.7251965">
        <ele>36.1868</ele>
        <time>2012-04-08T11:44:54Z</time>
      </trkpt>
      <trkpt lat="59.9529818" lon="17.7250866">
        <ele>38.5901</ele>
        <time>2012-04-08T11:45:00Z</time>
      </trkpt>
      <trkpt lat="59.9530189" lon="17.7249885">
        <ele>40.5128</ele>
        <time>2012-04-08T11:45:04Z</time>
      </trkpt>
      <trkpt lat="59.953105" lon="17.7248208">
        <ele>37.1481</ele>
        <time>2012-04-08T11:45:11Z</time>
      </trkpt>
      <trkpt lat="59.9531827" lon="17.7246884">
        <ele>38.1094</ele>
        <time>2012-04-08T11:45:17Z</time>
      </trkpt>
      <trkpt lat="59.9531924" lon="17.7246621">
        <ele>39.0707</ele>
        <time>2012-04-08T11:45:18Z</time>
      </trkpt>
      <trkpt lat="59.953249" lon="17.7245373">
        <ele>40.5128</ele>
        <time>2012-04-08T11:45:24Z</time>
      </trkpt>
      <trkpt lat="59.9533163" lon="17.7244458">
        <ele>40.5128</ele>
        <time>2012-04-08T11:45:29Z</time>
      </trkpt>
      <trkpt lat="59.9533415" lon="17.7243738">
        <ele>40.5128</ele>
        <time>2012-04-08T11:45:32Z</time>
      </trkpt>
      <trkpt lat="59.953384" lon="17.7242823">
        <ele>39.5513</ele>
        <time>2012-04-08T11:45:36Z</time>
      </trkpt>
      <trkpt lat="59.9534779" lon="17.7241242">
        <ele>39.0707</ele>
        <time>2012-04-08T11:45:44Z</time>
      </trkpt>
      <trkpt lat="59.9534822" lon="17.7241061">
        <ele>38.5901</ele>
        <time>2012-04-08T11:45:45Z</time>
      </trkpt>
      <trkpt lat="59.9535322" lon="17.7240021">
        <ele>40.0321</ele>
        <time>2012-04-08T11:45:50Z</time>
      </trkpt>
      <trkpt lat="59.95355" lon="17.7239839">
        <ele>40.5128</ele>
        <time>2012-04-08T11:45:51Z</time>
      </trkpt>
      <trkpt lat="59.9536102" lon="17.7238674">
        <ele>41.9547</ele>
        <time>2012-04-08T11:45:57Z</time>
      </trkpt>
      <trkpt lat="59.9536269" lon="17.723827">
        <ele>42.4354</ele>
        <time>2012-04-08T11:45:59Z</time>
      </trkpt>
      <trkpt lat="59.9537219" lon="17.7237095">
        <ele>43.8773</ele>
        <time>2012-04-08T11:46:06Z</time>
      </trkpt>
      <trkpt lat="59.9537737" lon="17.7236124">
        <ele>44.358</ele>
        <time>2012-04-08T11:46:11Z</time>
      </trkpt>
      <trkpt lat="59.9537906" lon="17.7235978">
        <ele>44.8386</ele>
        <time>2012-04-08T11:46:12Z</time>
      </trkpt>
      <trkpt lat="59.9538878" lon="17.723512">
        <ele>46.2806</ele>
        <time>2012-04-08T11:46:19Z</time>
      </trkpt>
      <trkpt lat="59.9540113" lon="17.7234149">
        <ele>50.126</ele>
        <time>2012-04-08T11:46:26Z</time>
      </trkpt>
      <trkpt lat="59.9540268" lon="17.7234038">
        <ele>50.126</ele>
        <time>2012-04-08T11:46:27Z</time>
      </trkpt>
      <trkpt lat="59.9540504" lon="17.7233235">
        <ele>47.2418</ele>
        <time>2012-04-08T11:46:31Z</time>
      </trkpt>
      <trkpt lat="59.9541109" lon="17.7232623">
        <ele>42.4354</ele>
        <time>2012-04-08T11:46:37Z</time>
      </trkpt>
      <trkpt lat="59.9541752" lon="17.723255">
        <ele>41.474</ele>
        <time>2012-04-08T11:46:42Z</time>
      </trkpt>
      <trkpt lat="59.9542414" lon="17.7232789">
        <ele>40.5128</ele>
        <time>2012-04-08T11:46:47Z</time>
      </trkpt>
      <trkpt lat="59.954267" lon="17.7232913">
        <ele>40.5128</ele>
        <time>2012-04-08T11:46:49Z</time>
      </trkpt>
      <trkpt lat="59.9543208" lon="17.7233333">
        <ele>38.5901</ele>
        <time>2012-04-08T11:46:54Z</time>
      </trkpt>
      <trkpt lat="59.9543316" lon="17.7233421">
        <ele>38.1094</ele>
        <time>2012-04-08T11:46:55Z</time>
      </trkpt>
      <trkpt lat="59.9544009" lon="17.7234046">
        <ele>36.1868</ele>
        <time>2012-04-08T11:47:01Z</time>
      </trkpt>
      <trkpt lat="59.9544907" lon="17.7234892">
        <ele>35.7061</ele>
        <time>2012-04-08T11:47:08Z</time>
      </trkpt>
      <trkpt lat="59.9545053" lon="17.7234969">
        <ele>35.7061</ele>
        <time>2012-04-08T11:47:09Z</time>
      </trkpt>
      <trkpt lat="59.9545801" lon="17.7235342">
        <ele>35.2255</ele>
        <time>2012-04-08T11:47:14Z</time>
      </trkpt>
      <trkpt lat="59.9546211" lon="17.7235738">
        <ele>35.7061</ele>
        <time>2012-04-08T11:47:17Z</time>
      </trkpt>
      <trkpt lat="59.9547321" lon="17.7236648">
        <ele>36.6675</ele>
        <time>2012-04-08T11:47:23Z</time>
      </trkpt>
      <trkpt lat="59.954846" lon="17.7236667">
        <ele>40.9934</ele>
        <time>2012-04-08T11:47:30Z</time>
      </trkpt>
      <trkpt lat="59.9549517" lon="17.723672">
        <ele>46.7612</ele>
        <time>2012-04-08T11:47:34Z</time>
      </trkpt>
      <trkpt lat="59.9550321" lon="17.7236383">
        <ele>51.0872</ele>
        <time>2012-04-08T11:47:38Z</time>
      </trkpt>
      <trkpt lat="59.9551509" lon="17.7235789">
        <ele>50.6066</ele>
        <time>2012-04-08T11:47:45Z</time>
      </trkpt>
      <trkpt lat="59.9552146" lon="17.7235525">
        <ele>48.2034</ele>
        <time>2012-04-08T11:47:50Z</time>
      </trkpt>
      <trkpt lat="59.9552836" lon="17.7234555">
        <ele>45.3192</ele>
        <time>2012-04-08T11:47:57Z</time>
      </trkpt>
      <trkpt lat="59.9553361" lon="17.7234063">
        <ele>42.4354</ele>
        <time>2012-04-08T11:48:02Z</time>
      </trkpt>
      <trkpt lat="59.9554011" lon="17.7234093">
        <ele>37.6287</ele>
        <time>2012-04-08T11:48:09Z</time>
      </trkpt>
      <trkpt lat="59.9554894" lon="17.7234365">
        <ele>42.4354</ele>
        <time>2012-04-08T11:48:14Z</time>
      </trkpt>
      <trkpt lat="59.9555503" lon="17.7234896">
        <ele>41.9547</ele>
        <time>2012-04-08T11:48:18Z</time>
      </trkpt>
      <trkpt lat="59.9555749" lon="17.723526">
        <ele>41.474</ele>
        <time>2012-04-08T11:48:20Z</time>
      </trkpt>
      <trkpt lat="59.9556427" lon="17.7235913">
        <ele>44.8386</ele>
        <time>2012-04-08T11:48:24Z</time>
      </trkpt>
      <trkpt lat="59.9557568" lon="17.7236655">
        <ele>47.7225</ele>
        <time>2012-04-08T11:48:31Z</time>
      </trkpt>
      <trkpt lat="59.9557722" lon="17.7236729">
        <ele>47.2418</ele>
        <time>2012-04-08T11:48:32Z</time>
      </trkpt>
      <trkpt lat="59.9558405" lon="17.7236859">
        <ele>45.3192</ele>
        <time>2012-04-08T11:48:38Z</time>
      </trkpt>
      <trkpt lat="59.9558627" lon="17.7236589">
        <ele>43.8773</ele>
        <time>2012-04-08T11:48:40Z</time>
      </trkpt>
      <trkpt lat="59.9559696" lon="17.7235504">
        <ele>44.358</ele>
        <time>2012-04-08T11:48:46Z</time>
      </trkpt>
      <trkpt lat="59.9560378" lon="17.7234346">
        <ele>42.916</ele>
        <time>2012-04-08T11:48:51Z</time>
      </trkpt>
      <trkpt lat="59.9560738" lon="17.7233862">
        <ele>42.916</ele>
        <time>2012-04-08T11:48:53Z</time>
      </trkpt>
      <trkpt lat="59.9561066" lon="17.7232877">
        <ele>42.916</ele>
        <time>2012-04-08T11:48:56Z</time>
      </trkpt>
      <trkpt lat="59.9560886" lon="17.7231337">
        <ele>44.358</ele>
        <time>2012-04-08T11:49:00Z</time>
      </trkpt>
      <trkpt lat="59.9560773" lon="17.723042">
        <ele>47.2418</ele>
        <time>2012-04-08T11:49:03Z</time>
      </trkpt>
      <trkpt lat="59.956051" lon="17.7229478">
        <ele>50.126</ele>
        <time>2012-04-08T11:49:06Z</time>
      </trkpt>
      <trkpt lat="59.9559961" lon="17.7227356">
        <ele>51.5679</ele>
        <time>2012-04-08T11:49:12Z</time>
      </trkpt>
      <trkpt lat="59.9559701" lon="17.7226302">
        <ele>53.9712</ele>
        <time>2012-04-08T11:49:15Z</time>
      </trkpt>
      <trkpt lat="59.9559598" lon="17.7225186">
        <ele>56.3745</ele>
        <time>2012-04-08T11:49:19Z</time>
      </trkpt>
      <trkpt lat="59.9559191" lon="17.7224169">
        <ele>56.8551</ele>
        <time>2012-04-08T11:49:22Z</time>
      </trkpt>
      <trkpt lat="59.9559008" lon="17.7223703">
        <ele>58.2971</ele>
        <time>2012-04-08T11:49:24Z</time>
      </trkpt>
      <trkpt lat="59.9558613" lon="17.7222397">
        <ele>58.2971</ele>
        <time>2012-04-08T11:49:29Z</time>
      </trkpt>
      <trkpt lat="59.9558562" lon="17.7220636">
        <ele>55.8938</ele>
        <time>2012-04-08T11:49:35Z</time>
      </trkpt>
      <trkpt lat="59.9558706" lon="17.7219599">
        <ele>53.0098</ele>
        <time>2012-04-08T11:49:39Z</time>
      </trkpt>
      <trkpt lat="59.9558671" lon="17.721862">
        <ele>50.126</ele>
        <time>2012-04-08T11:49:43Z</time>
      </trkpt>
      <trkpt lat="59.9558893" lon="17.7216928">
        <ele>45.3192</ele>
        <time>2012-04-08T11:49:49Z</time>
      </trkpt>
      <trkpt lat="59.9559344" lon="17.7214938">
        <ele>41.9547</ele>
        <time>2012-04-08T11:49:56Z</time>
      </trkpt>
      <trkpt lat="59.9559389" lon="17.7213774">
        <ele>40.0321</ele>
        <time>2012-04-08T11:50:01Z</time>
      </trkpt>
      <trkpt lat="59.9559323" lon="17.7213269">
        <ele>39.0707</ele>
        <time>2012-04-08T11:50:04Z</time>
      </trkpt>
      <trkpt lat="59.9558789" lon="17.7213079">
        <ele>39.5513</ele>
        <time>2012-04-08T11:50:09Z</time>
      </trkpt>
      <trkpt lat="59.9558598" lon="17.7213079">
        <ele>39.5513</ele>
        <time>2012-04-08T11:50:11Z</time>
      </trkpt>
      <trkpt lat="59.9557701" lon="17.7213311">
        <ele>41.474</ele>
        <time>2012-04-08T11:50:17Z</time>
      </trkpt>
      <trkpt lat="59.9556966" lon="17.7213824">
        <ele>43.8773</ele>
        <time>2012-04-08T11:50:21Z</time>
      </trkpt>
      <trkpt lat="59.9556521" lon="17.7213994">
        <ele>44.8386</ele>
        <time>2012-04-08T11:50:25Z</time>
      </trkpt>
      <trkpt lat="59.9555933" lon="17.721441">
        <ele>46.2806</ele>
        <time>2012-04-08T11:50:29Z</time>
      </trkpt>
      <trkpt lat="59.9555138" lon="17.7214773">
        <ele>46.7612</ele>
        <time>2012-04-08T11:50:35Z</time>
      </trkpt>
      <trkpt lat="59.9554351" lon="17.7214528">
        <ele>48.684</ele>
        <time>2012-04-08T11:50:40Z</time>
      </trkpt>
      <trkpt lat="59.9553003" lon="17.7214374">
        <ele>51.5679</ele>
        <time>2012-04-08T11:50:48Z</time>
      </trkpt>
      <trkpt lat="59.9552439" lon="17.7214027">
        <ele>51.5679</ele>
        <time>2012-04-08T11:50:52Z</time>
      </trkpt>
      <trkpt lat="59.9551426" lon="17.7213918">
        <ele>52.5292</ele>
        <time>2012-04-08T11:50:58Z</time>
      </trkpt>
      <trkpt lat="59.9551048" lon="17.7214072">
        <ele>52.5292</ele>
        <time>2012-04-08T11:51:00Z</time>
      </trkpt>
      <trkpt lat="59.9550139" lon="17.7214118">
        <ele>52.5292</ele>
        <time>2012-04-08T11:51:06Z</time>
      </trkpt>
      <trkpt lat="59.954948" lon="17.7213741">
        <ele>53.0098</ele>
        <time>2012-04-08T11:51:11Z</time>
      </trkpt>
      <trkpt lat="59.9548574" lon="17.7213104">
        <ele>54.9324</ele>
        <time>2012-04-08T11:51:17Z</time>
      </trkpt>
      <trkpt lat="59.9548095" lon="17.721184">
        <ele>52.0486</ele>
        <time>2012-04-08T11:51:22Z</time>
      </trkpt>
      <trkpt lat="59.9547998" lon="17.7210587">
        <ele>49.1646</ele>
        <time>2012-04-08T11:51:26Z</time>
      </trkpt>
      <trkpt lat="59.9547957" lon="17.7210062">
        <ele>47.7225</ele>
        <time>2012-04-08T11:51:28Z</time>
      </trkpt>
      <trkpt lat="59.9548195" lon="17.7207821">
        <ele>44.358</ele>
        <time>2012-04-08T11:51:36Z</time>
      </trkpt>
      <trkpt lat="59.9548274" lon="17.720756">
        <ele>43.8773</ele>
        <time>2012-04-08T11:51:37Z</time>
      </trkpt>
      <trkpt lat="59.9548792" lon="17.7206337">
        <ele>40.9934</ele>
        <time>2012-04-08T11:51:43Z</time>
      </trkpt>
      <trkpt lat="59.9548759" lon="17.7205785">
        <ele>40.9934</ele>
        <time>2012-04-08T11:51:45Z</time>
      </trkpt>
      <trkpt lat="59.9549126" lon="17.7205044">
        <ele>41.9547</ele>
        <time>2012-04-08T11:51:49Z</time>
      </trkpt>
      <trkpt lat="59.9549526" lon="17.7204402">
        <ele>42.916</ele>
        <time>2012-04-08T11:51:52Z</time>
      </trkpt>
      <trkpt lat="59.9550597" lon="17.7203269">
        <ele>42.916</ele>
        <time>2012-04-08T11:51:59Z</time>
      </trkpt>
      <trkpt lat="59.9551476" lon="17.7202673">
        <ele>44.8386</ele>
        <time>2012-04-08T11:52:04Z</time>
      </trkpt>
      <trkpt lat="59.9551756" lon="17.7202326">
        <ele>45.3192</ele>
        <time>2012-04-08T11:52:06Z</time>
      </trkpt>
      <trkpt lat="59.9552087" lon="17.7201756">
        <ele>45.7999</ele>
        <time>2012-04-08T11:52:10Z</time>
      </trkpt>
      <trkpt lat="59.9552558" lon="17.7201127">
        <ele>45.3192</ele>
        <time>2012-04-08T11:52:15Z</time>
      </trkpt>
      <trkpt lat="59.9553115" lon="17.7200241">
        <ele>45.3192</ele>
        <time>2012-04-08T11:52:21Z</time>
      </trkpt>
      <trkpt lat="59.955369" lon="17.7199829">
        <ele>43.3966</ele>
        <time>2012-04-08T11:52:26Z</time>
      </trkpt>
      <trkpt lat="59.9554422" lon="17.719903">
        <ele>40.9934</ele>
        <time>2012-04-08T11:52:33Z</time>
      </trkpt>
      <trkpt lat="59.9554795" lon="17.7198886">
        <ele>40.5128</ele>
        <time>2012-04-08T11:52:36Z</time>
      </trkpt>
      <trkpt lat="59.9555841" lon="17.7198089">
        <ele>41.9547</ele>
        <time>2012-04-08T11:52:42Z</time>
      </trkpt>
      <trkpt lat="59.9556515" lon="17.7197076">
        <ele>41.474</ele>
        <time>2012-04-08T11:52:48Z</time>
      </trkpt>
      <trkpt lat="59.955734" lon="17.7196232">
        <ele>40.9934</ele>
        <time>2012-04-08T11:52:55Z</time>
      </trkpt>
      <trkpt lat="59.9557442" lon="17.7196076">
        <ele>40.9934</ele>
        <time>2012-04-08T11:52:56Z</time>
      </trkpt>
      <trkpt lat="59.9557868" lon="17.7195757">
        <ele>40.0321</ele>
        <time>2012-04-08T11:52:59Z</time>
      </trkpt>
      <trkpt lat="59.9558478" lon="17.7195151">
        <ele>40.5128</ele>
        <time>2012-04-08T11:53:04Z</time>
      </trkpt>
      <trkpt lat="59.9559468" lon="17.719414">
        <ele>43.8773</ele>
        <time>2012-04-08T11:53:10Z</time>
      </trkpt>
      <trkpt lat="59.956008" lon="17.7193325">
        <ele>45.3192</ele>
        <time>2012-04-08T11:53:15Z</time>
      </trkpt>
      <trkpt lat="59.9560478" lon="17.7192768">
        <ele>45.7999</ele>
        <time>2012-04-08T11:53:18Z</time>
      </trkpt>
      <trkpt lat="59.9560867" lon="17.7192069">
        <ele>47.2418</ele>
        <time>2012-04-08T11:53:21Z</time>
      </trkpt>
      <trkpt lat="59.9561181" lon="17.7190419">
        <ele>49.1646</ele>
        <time>2012-04-08T11:53:27Z</time>
      </trkpt>
      <trkpt lat="59.9561343" lon="17.7189219">
        <ele>49.1646</ele>
        <time>2012-04-08T11:53:31Z</time>
      </trkpt>
      <trkpt lat="59.9561435" lon="17.7188929">
        <ele>49.1646</ele>
        <time>2012-04-08T11:53:32Z</time>
      </trkpt>
      <trkpt lat="59.9561519" lon="17.7187215">
        <ele>50.6066</ele>
        <time>2012-04-08T11:53:38Z</time>
      </trkpt>
      <trkpt lat="59.9561069" lon="17.7186057">
        <ele>51.5679</ele>
        <time>2012-04-08T11:53:43Z</time>
      </trkpt>
      <trkpt lat="59.9560887" lon="17.718521">
        <ele>51.0872</ele>
        <time>2012-04-08T11:53:48Z</time>
      </trkpt>
      <trkpt lat="59.9560678" lon="17.7184039">
        <ele>50.6066</ele>
        <time>2012-04-08T11:53:52Z</time>
      </trkpt>
      <trkpt lat="59.9560436" lon="17.7182949">
        <ele>49.6453</ele>
        <time>2012-04-08T11:53:56Z</time>
      </trkpt>
      <trkpt lat="59.9559951" lon="17.7181921">
        <ele>47.2418</ele>
        <time>2012-04-08T11:54:02Z</time>
      </trkpt>
      <trkpt lat="59.9559722" lon="17.7181698">
        <ele>46.7612</ele>
        <time>2012-04-08T11:54:04Z</time>
      </trkpt>
      <trkpt lat="59.9558809" lon="17.7180829">
        <ele>46.7612</ele>
        <time>2012-04-08T11:54:10Z</time>
      </trkpt>
      <trkpt lat="59.9558458" lon="17.7178982">
        <ele>47.7225</ele>
        <time>2012-04-08T11:54:17Z</time>
      </trkpt>
      <trkpt lat="59.9558033" lon="17.7177542">
        <ele>48.2034</ele>
        <time>2012-04-08T11:54:22Z</time>
      </trkpt>
      <trkpt lat="59.9557772" lon="17.7176237">
        <ele>47.7225</ele>
        <time>2012-04-08T11:54:27Z</time>
      </trkpt>
      <trkpt lat="59.9557216" lon="17.7174719">
        <ele>47.7225</ele>
        <time>2012-04-08T11:54:33Z</time>
      </trkpt>
      <trkpt lat="59.9556956" lon="17.717329">
        <ele>46.2806</ele>
        <time>2012-04-08T11:54:38Z</time>
      </trkpt>
      <trkpt lat="59.955678" lon="17.7172685">
        <ele>45.3192</ele>
        <time>2012-04-08T11:54:40Z</time>
      </trkpt>
      <trkpt lat="59.9556052" lon="17.7170505">
        <ele>46.2806</ele>
        <time>2012-04-08T11:54:47Z</time>
      </trkpt>
      <trkpt lat="59.9555869" lon="17.7169898">
        <ele>45.7999</ele>
        <time>2012-04-08T11:54:49Z</time>
      </trkpt>
      <trkpt lat="59.955564" lon="17.7168255">
        <ele>44.8386</ele>
        <time>2012-04-08T11:54:54Z</time>
      </trkpt>
      <trkpt lat="59.9555386" lon="17.7166707">
        <ele>42.916</ele>
        <time>2012-04-08T11:54:59Z</time>
      </trkpt>
      <trkpt lat="59.9555386" lon="17.7165762">
        <ele>43.3966</ele>
        <time>2012-04-08T11:55:02Z</time>
      </trkpt>
      <trkpt lat="59.9555256" lon="17.7164009">
        <ele>44.358</ele>
        <time>2012-04-08T11:55:07Z</time>
      </trkpt>
      <trkpt lat="59.9555142" lon="17.7161936">
        <ele>42.4354</ele>
        <time>2012-04-08T11:55:13Z</time>
      </trkpt>
      <trkpt lat="59.9554928" lon="17.7159794">
        <ele>40.0321</ele>
        <time>2012-04-08T11:55:19Z</time>
      </trkpt>
      <trkpt lat="59.9554775" lon="17.7157941">
        <ele>39.0707</ele>
        <time>2012-04-08T11:55:25Z</time>
      </trkpt>
      <trkpt lat="59.9554609" lon="17.7156863">
        <ele>39.0707</ele>
        <time>2012-04-08T11:55:29Z</time>
      </trkpt>
      <trkpt lat="59.9554619" lon="17.7155926">
        <ele>40.9934</ele>
        <time>2012-04-08T11:55:33Z</time>
      </trkpt>
      <trkpt lat="59.9554485" lon="17.7154362">
        <ele>41.474</ele>
        <time>2012-04-08T11:55:38Z</time>
      </trkpt>
      <trkpt lat="59.9554437" lon="17.7153724">
        <ele>41.9547</ele>
        <time>2012-04-08T11:55:40Z</time>
      </trkpt>
      <trkpt lat="59.9554314" lon="17.7151944">
        <ele>41.9547</ele>
        <time>2012-04-08T11:55:46Z</time>
      </trkpt>
      <trkpt lat="59.9554531" lon="17.7150337">
        <ele>42.916</ele>
        <time>2012-04-08T11:55:51Z</time>
      </trkpt>
      <trkpt lat="59.955495" lon="17.7150346">
        <ele>43.3966</ele>
        <time>2012-04-08T11:55:55Z</time>
      </trkpt>
    </trkseg>
  </trk>
</gpx>